sensor_id;sensor_type;location;lat;lon;timestamp;pressure;altitude;pressure_sealevel;temperature;humidity
5952;BME280;3001;42.622;23.194;2023-04-02T00:01:53;90471.88;;;8.15;79.96
5952;BME280;3001;42.622;23.194;2023-04-02T00:04:22;90467.44;;;8.50;82.20
5952;BME280;3001;42.622;23.194;2023-04-02T00:06:55;90466.56;;;8.46;81.34
5952;BME280;3001;42.622;23.194;2023-04-02T00:09:42;90455.31;;;8.42;83.08
5952;BME280;3001;42.622;23.194;2023-04-02T00:12:14;90462.28;;;8.50;81.95
5952;BME280;3001;42.622;23.194;2023-04-02T00:14:51;90455.75;;;8.44;81.68
5952;BME280;3001;42.622;23.194;2023-04-02T00:17:20;90456.81;;;8.34;83.16
5952;BME280;3001;42.622;23.194;2023-04-02T00:19:52;90458.78;;;8.37;83.02
5952;BME280;3001;42.622;23.194;2023-04-02T00:22:24;90450.84;;;8.51;82.47
5952;BME280;3001;42.622;23.194;2023-04-02T00:24:54;90449.06;;;8.43;80.89
5952;BME280;3001;42.622;23.194;2023-04-02T00:27:21;90437.66;;;8.27;81.95
5952;BME280;3001;42.622;23.194;2023-04-02T00:29:50;90433.69;;;8.12;80.44
5952;BME280;3001;42.622;23.194;2023-04-02T00:32:23;90434.34;;;8.18;81.14
5952;BME280;3001;42.622;23.194;2023-04-02T00:34:53;90451.19;;;8.32;78.45
5952;BME280;3001;42.622;23.194;2023-04-02T00:37:21;90445.25;;;8.32;78.41
5952;BME280;3001;42.622;23.194;2023-04-02T00:39:55;90438.72;;;8.26;79.33
5952;BME280;3001;42.622;23.194;2023-04-02T00:42:24;90446.91;;;8.45;79.35
5952;BME280;3001;42.622;23.194;2023-04-02T00:44:52;90452.13;;;8.28;81.89
5952;BME280;3001;42.622;23.194;2023-04-02T00:47:22;90441.13;;;8.39;79.58
5952;BME280;3001;42.622;23.194;2023-04-02T00:49:56;90444.78;;;8.38;81.35
5952;BME280;3001;42.622;23.194;2023-04-02T00:52:25;90443.28;;;8.29;80.72
5952;BME280;3001;42.622;23.194;2023-04-02T00:55:00;90446.66;;;8.21;80.51
5952;BME280;3001;42.622;23.194;2023-04-02T00:57:28;90442.66;;;8.15;79.77
5952;BME280;3001;42.622;23.194;2023-04-02T00:59:58;90446.00;;;8.15;79.09
5952;BME280;3001;42.622;23.194;2023-04-02T01:02:29;90457.72;;;8.13;79.50
5952;BME280;3001;42.622;23.194;2023-04-02T01:05:00;90455.75;;;8.10;80.15
5952;BME280;3001;42.622;23.194;2023-04-02T01:07:38;90459.72;;;8.07;78.11
5952;BME280;3001;42.622;23.194;2023-04-02T01:10:22;90450.13;;;7.91;79.04
5952;BME280;3001;42.622;23.194;2023-04-02T01:12:57;90447.69;;;7.94;79.37
5952;BME280;3001;42.622;23.194;2023-04-02T01:15:32;90455.13;;;8.04;81.37
5952;BME280;3001;42.622;23.194;2023-04-02T01:18:14;90447.25;;;8.01;80.05
5952;BME280;3001;42.622;23.194;2023-04-02T01:21:02;90456.03;;;8.17;77.83
5952;BME280;3001;42.622;23.194;2023-04-02T01:23:36;90449.84;;;8.18;79.96
5952;BME280;3001;42.622;23.194;2023-04-02T01:26:12;90452.44;;;8.18;78.07
5952;BME280;3001;42.622;23.194;2023-04-02T01:28:53;90459.59;;;8.21;79.04
5952;BME280;3001;42.622;23.194;2023-04-02T01:31:25;90462.75;;;8.35;79.82
5952;BME280;3001;42.622;23.194;2023-04-02T01:33:52;90451.19;;;8.32;78.09
5952;BME280;3001;42.622;23.194;2023-04-02T01:36:25;90456.53;;;8.27;79.96
5952;BME280;3001;42.622;23.194;2023-04-02T01:38:58;90457.41;;;8.14;80.70
5952;BME280;3001;42.622;23.194;2023-04-02T01:41:32;90458.78;;;8.03;81.81
5952;BME280;3001;42.622;23.194;2023-04-02T01:44:06;90449.06;;;8.00;81.73
5952;BME280;3001;42.622;23.194;2023-04-02T01:46:35;90447.06;;;7.89;82.14
5952;BME280;3001;42.622;23.194;2023-04-02T01:49:11;90453.03;;;7.89;80.79
5952;BME280;3001;42.622;23.194;2023-04-02T01:51:41;90456.34;;;7.98;82.15
5952;BME280;3001;42.622;23.194;2023-04-02T01:54:09;90453.78;;;7.98;82.48
5952;BME280;3001;42.622;23.194;2023-04-02T01:56:36;90450.56;;;8.01;81.04
5952;BME280;3001;42.622;23.194;2023-04-02T01:59:07;90451.03;;;7.95;80.63
5952;BME280;3001;42.622;23.194;2023-04-02T02:01:38;90451.06;;;7.86;80.07
5952;BME280;3001;42.622;23.194;2023-04-02T02:04:11;90455.16;;;7.79;81.90
5952;BME280;3001;42.622;23.194;2023-04-02T02:06:38;90469.72;;;7.83;82.60
5952;BME280;3001;42.622;23.194;2023-04-02T02:09:06;90457.56;;;7.84;83.05
5952;BME280;3001;42.622;23.194;2023-04-02T02:11:35;90465.16;;;7.72;83.59
5952;BME280;3001;42.622;23.194;2023-04-02T02:14:08;90462.75;;;7.84;83.13
5952;BME280;3001;42.622;23.194;2023-04-02T02:16:38;90457.56;;;7.84;83.15
5952;BME280;3001;42.622;23.194;2023-04-02T02:19:21;90453.63;;;7.78;82.85
5952;BME280;3001;42.622;23.194;2023-04-02T02:21:50;90453.16;;;7.84;82.36
5952;BME280;3001;42.622;23.194;2023-04-02T02:24:20;90455.44;;;7.77;82.92
5952;BME280;3001;42.622;23.194;2023-04-02T02:26:53;90453.16;;;7.59;80.81
5952;BME280;3001;42.622;23.194;2023-04-02T02:29:26;90438.53;;;7.46;80.88
5952;BME280;3001;42.622;23.194;2023-04-02T02:31:54;90445.81;;;7.44;82.66
5952;BME280;3001;42.622;23.194;2023-04-02T02:34:27;90452.53;;;7.53;83.42
5952;BME280;3001;42.622;23.194;2023-04-02T02:37:01;90446.00;;;7.56;82.27
5952;BME280;3001;42.622;23.194;2023-04-02T02:39:35;90446.47;;;7.58;82.67
5952;BME280;3001;42.622;23.194;2023-04-02T02:42:08;90447.22;;;7.58;82.97
5952;BME280;3001;42.622;23.194;2023-04-02T02:44:41;90442.47;;;7.52;83.77
5952;BME280;3001;42.622;23.194;2023-04-02T02:47:13;90451.16;;;7.64;83.02
5952;BME280;3001;42.622;23.194;2023-04-02T02:49:42;90445.22;;;7.47;83.87
5952;BME280;3001;42.622;23.194;2023-04-02T02:52:15;90450.09;;;7.57;81.01
5952;BME280;3001;42.622;23.194;2023-04-02T02:54:45;90443.28;;;7.69;81.81
5952;BME280;3001;42.622;23.194;2023-04-02T02:57:17;90442.06;;;7.75;81.24
5952;BME280;3001;42.622;23.194;2023-04-02T02:59:46;90445.09;;;7.69;81.29
5952;BME280;3001;42.622;23.194;2023-04-02T03:02:15;90452.53;;;7.62;80.99
5952;BME280;3001;42.622;23.194;2023-04-02T03:04:46;90444.03;;;7.78;81.41
5952;BME280;3001;42.622;23.194;2023-04-02T03:07:13;90444.66;;;7.92;80.46
5952;BME280;3001;42.622;23.194;2023-04-02T03:09:46;90458.03;;;7.86;82.13
5952;BME280;3001;42.622;23.194;2023-04-02T03:12:27;90453.94;;;8.02;81.54
5952;BME280;3001;42.622;23.194;2023-04-02T03:15:02;90456.69;;;7.97;80.33
5952;BME280;3001;42.622;23.194;2023-04-02T03:17:35;90450.56;;;7.93;81.34
5952;BME280;3001;42.622;23.194;2023-04-02T03:20:05;90457.13;;;8.07;79.79
5952;BME280;3001;42.622;23.194;2023-04-02T03:22:38;90460.66;;;8.20;80.84
5952;BME280;3001;42.622;23.194;2023-04-02T03:25:19;90458.81;;;8.29;81.26
5952;BME280;3001;42.622;23.194;2023-04-02T03:27:50;90451.97;;;8.07;80.37
5952;BME280;3001;42.622;23.194;2023-04-02T03:30:30;90456.06;;;8.00;81.06
5952;BME280;3001;42.622;23.194;2023-04-02T03:33:00;90455.00;;;8.01;81.98
5952;BME280;3001;42.622;23.194;2023-04-02T03:35:34;90460.47;;;7.99;80.75
5952;BME280;3001;42.622;23.194;2023-04-02T03:38:04;90466.84;;;7.76;82.89
5952;BME280;3001;42.622;23.194;2023-04-02T03:40:34;90469.72;;;7.92;83.13
5952;BME280;3001;42.622;23.194;2023-04-02T03:43:12;90466.09;;;7.93;81.66
5952;BME280;3001;42.622;23.194;2023-04-02T03:45:44;90467.59;;;7.85;82.80
5952;BME280;3001;42.622;23.194;2023-04-02T03:48:17;90465.63;;;7.82;80.96
5952;BME280;3001;42.622;23.194;2023-04-02T03:50:51;90468.66;;;7.67;81.29
5952;BME280;3001;42.622;23.194;2023-04-02T03:53:22;90456.94;;;7.61;81.61
5952;BME280;3001;42.622;23.194;2023-04-02T03:55:49;90463.59;;;7.54;82.96
5952;BME280;3001;42.622;23.194;2023-04-02T03:58:20;90460.44;;;7.57;83.66
5952;BME280;3001;42.622;23.194;2023-04-02T04:00:53;90449.66;;;7.72;82.23
5952;BME280;3001;42.622;23.194;2023-04-02T04:03:25;90464.84;;;7.65;82.16
5952;BME280;3001;42.622;23.194;2023-04-02T04:05:57;90468.19;;;7.57;81.89
5952;BME280;3001;42.622;23.194;2023-04-02T04:08:29;90468.63;;;7.42;81.66
5952;BME280;3001;42.622;23.194;2023-04-02T04:11:00;90464.81;;;7.48;82.32
5952;BME280;3001;42.622;23.194;2023-04-02T04:13:34;90467.84;;;7.50;82.40
5952;BME280;3001;42.622;23.194;2023-04-02T04:16:07;90467.69;;;7.29;83.04
5952;BME280;3001;42.622;23.194;2023-04-02T04:18:41;90476.50;;;6.89;84.57
5952;BME280;3001;42.622;23.194;2023-04-02T04:21:14;90468.41;;;6.82;84.94
5952;BME280;3001;42.622;23.194;2023-04-02T04:23:54;90467.00;;;6.77;85.48
5952;BME280;3001;42.622;23.194;2023-04-02T04:26:26;90482.97;;;6.78;86.23
5952;BME280;3001;42.622;23.194;2023-04-02T04:28:59;90482.97;;;6.78;86.58
5952;BME280;3001;42.622;23.194;2023-04-02T04:31:34;90478.72;;;6.82;85.31
5952;BME280;3001;42.622;23.194;2023-04-02T04:34:07;90486.31;;;6.79;86.67
5952;BME280;3001;42.622;23.194;2023-04-02T04:36:41;90488.97;;;6.66;86.53
5952;BME280;3001;42.622;23.194;2023-04-02T04:39:15;90488.94;;;6.57;87.28
5952;BME280;3001;42.622;23.194;2023-04-02T04:41:46;90482.94;;;6.48;87.80
5952;BME280;3001;42.622;23.194;2023-04-02T04:44:17;90494.72;;;6.63;86.32
5952;BME280;3001;42.622;23.194;2023-04-02T04:46:49;90488.22;;;6.65;86.67
5952;BME280;3001;42.622;23.194;2023-04-02T04:49:19;90477.47;;;6.72;86.36
5952;BME280;3001;42.622;23.194;2023-04-02T04:51:50;90490.06;;;6.73;87.57
5952;BME280;3001;42.622;23.194;2023-04-02T04:54:17;90490.25;;;6.77;86.12
5952;BME280;3001;42.622;23.194;2023-04-02T04:56:46;90504.13;;;6.89;86.45
5952;BME280;3001;42.622;23.194;2023-04-02T04:59:17;90497.88;;;6.90;84.49
5952;BME280;3001;42.622;23.194;2023-04-02T05:01:52;90496.50;;;6.84;84.89
5952;BME280;3001;42.622;23.194;2023-04-02T05:04:24;90492.59;;;6.86;85.18
5952;BME280;3001;42.622;23.194;2023-04-02T05:06:54;90490.69;;;6.78;85.83
5952;BME280;3001;42.622;23.194;2023-04-02T05:09:24;90490.84;;;6.74;86.73
5952;BME280;3001;42.622;23.194;2023-04-02T05:12:01;90492.34;;;6.75;88.01
5952;BME280;3001;42.622;23.194;2023-04-02T05:14:33;90505.03;;;6.84;87.99
5952;BME280;3001;42.622;23.194;2023-04-02T05:17:06;90506.31;;;6.74;86.03
5952;BME280;3001;42.622;23.194;2023-04-02T05:19:38;90508.94;;;6.82;85.39
5952;BME280;3001;42.622;23.194;2023-04-02T05:22:15;90506.97;;;6.79;86.76
5952;BME280;3001;42.622;23.194;2023-04-02T05:24:52;90508.03;;;6.78;86.09
5952;BME280;3001;42.622;23.194;2023-04-02T05:27:35;90512.31;;;6.91;86.80
5952;BME280;3001;42.622;23.194;2023-04-02T05:30:10;90511.16;;;6.97;86.41
5952;BME280;3001;42.622;23.194;2023-04-02T05:32:42;90509.78;;;6.99;86.90
5952;BME280;3001;42.622;23.194;2023-04-02T05:35:15;90517.56;;;7.08;87.21
5952;BME280;3001;42.622;23.194;2023-04-02T05:37:43;90515.63;;;7.13;86.56
5952;BME280;3001;42.622;23.194;2023-04-02T05:40:14;90512.16;;;7.18;85.88
5952;BME280;3001;42.622;23.194;2023-04-02T05:42:48;90518.97;;;7.22;86.39
5952;BME280;3001;42.622;23.194;2023-04-02T05:45:22;90512.94;;;7.27;85.97
5952;BME280;3001;42.622;23.194;2023-04-02T05:47:54;90521.28;;;7.24;86.92
5952;BME280;3001;42.622;23.194;2023-04-02T05:50:27;90515.09;;;7.33;86.76
5952;BME280;3001;42.622;23.194;2023-04-02T05:52:58;90513.63;;;7.49;86.66
5952;BME280;3001;42.622;23.194;2023-04-02T05:55:37;90517.44;;;7.60;88.22
5952;BME280;3001;42.622;23.194;2023-04-02T05:58:06;90522.66;;;7.77;87.42
5952;BME280;3001;42.622;23.194;2023-04-02T06:01:00;90513.06;;;7.78;86.31
5952;BME280;3001;42.622;23.194;2023-04-02T06:03:38;90517.78;;;7.84;86.17
5952;BME280;3001;42.622;23.194;2023-04-02T06:06:14;90520.38;;;7.93;84.12
5952;BME280;3001;42.622;23.194;2023-04-02T06:08:49;90526.00;;;7.95;86.86
5952;BME280;3001;42.622;23.194;2023-04-02T06:11:20;90525.91;;;8.08;84.05
5952;BME280;3001;42.622;23.194;2023-04-02T06:13:49;90532.59;;;8.35;77.53
5952;BME280;3001;42.622;23.194;2023-04-02T06:16:16;90526.22;;;8.41;74.42
5952;BME280;3001;42.622;23.194;2023-04-02T06:18:44;90522.53;;;8.67;74.89
5952;BME280;3001;42.622;23.194;2023-04-02T06:21:13;90524.81;;;8.85;72.94
5952;BME280;3001;42.622;23.194;2023-04-02T06:23:44;90524.31;;;9.09;73.65
5952;BME280;3001;42.622;23.194;2023-04-02T06:26:19;90530.03;;;9.23;71.82
5952;BME280;3001;42.622;23.194;2023-04-02T06:28:48;90538.09;;;9.30;71.50
5952;BME280;3001;42.622;23.194;2023-04-02T06:31:24;90533.59;;;9.47;73.15
5952;BME280;3001;42.622;23.194;2023-04-02T06:33:54;90534.31;;;9.56;71.58
5952;BME280;3001;42.622;23.194;2023-04-02T06:36:22;90534.97;;;9.82;67.91
5952;BME280;3001;42.622;23.194;2023-04-02T06:38:49;90538.16;;;9.79;70.80
5952;BME280;3001;42.622;23.194;2023-04-02T06:41:19;90540.41;;;9.89;66.25
5952;BME280;3001;42.622;23.194;2023-04-02T06:43:50;90524.97;;;10.01;66.44
5952;BME280;3001;42.622;23.194;2023-04-02T06:46:22;90543.78;;;10.19;68.06
5952;BME280;3001;42.622;23.194;2023-04-02T06:48:58;90538.19;;;10.28;64.82
5952;BME280;3001;42.622;23.194;2023-04-02T06:51:27;90544.50;;;10.48;63.97
5952;BME280;3001;42.622;23.194;2023-04-02T06:53:56;90551.19;;;10.49;61.38
5952;BME280;3001;42.622;23.194;2023-04-02T06:56:35;90554.38;;;10.54;61.81
5952;BME280;3001;42.622;23.194;2023-04-02T06:59:04;90561.31;;;10.62;61.81
5952;BME280;3001;42.622;23.194;2023-04-02T07:01:35;90562.47;;;10.73;61.88
5952;BME280;3001;42.622;23.194;2023-04-02T07:04:04;90570.88;;;10.70;63.93
5952;BME280;3001;42.622;23.194;2023-04-02T07:06:31;90566.22;;;10.64;62.99
5952;BME280;3001;42.622;23.194;2023-04-02T07:08:57;90560.25;;;10.63;66.20
5952;BME280;3001;42.622;23.194;2023-04-02T07:11:24;90571.16;;;10.77;65.52
5952;BME280;3001;42.622;23.194;2023-04-02T07:13:51;90571.50;;;10.88;63.81
5952;BME280;3001;42.622;23.194;2023-04-02T07:16:20;90572.19;;;10.97;61.78
5952;BME280;3001;42.622;23.194;2023-04-02T07:18:49;90583.16;;;11.02;63.69
5952;BME280;3001;42.622;23.194;2023-04-02T07:21:17;90574.00;;;11.17;63.81
5952;BME280;3001;42.622;23.194;2023-04-02T07:23:45;90573.06;;;11.33;64.49
5952;BME280;3001;42.622;23.194;2023-04-02T07:26:14;90585.06;;;11.58;64.10
5952;BME280;3001;42.622;23.194;2023-04-02T07:28:41;90585.41;;;11.69;62.57
5952;BME280;3001;42.622;23.194;2023-04-02T07:31:14;90586.41;;;11.88;62.99
5952;BME280;3001;42.622;23.194;2023-04-02T07:33:42;90593.03;;;11.98;61.59
5952;BME280;3001;42.622;23.194;2023-04-02T07:36:12;90600.72;;;11.94;60.96
5952;BME280;3001;42.622;23.194;2023-04-02T07:38:41;90598.34;;;12.01;62.14
5952;BME280;3001;42.622;23.194;2023-04-02T07:41:08;90601.16;;;12.08;63.10
5952;BME280;3001;42.622;23.194;2023-04-02T07:43:35;90606.03;;;12.21;62.73
5952;BME280;3001;42.622;23.194;2023-04-02T07:46:02;90600.50;;;12.35;63.03
5952;BME280;3001;42.622;23.194;2023-04-02T07:48:28;90604.31;;;12.49;61.43
5952;BME280;3001;42.622;23.194;2023-04-02T07:50:55;90594.09;;;12.56;61.94
5952;BME280;3001;42.622;23.194;2023-04-02T07:53:26;90601.47;;;12.66;59.85
5952;BME280;3001;42.622;23.194;2023-04-02T07:55:55;90596.34;;;12.70;57.79
5952;BME280;3001;42.622;23.194;2023-04-02T07:58:22;90601.72;;;12.89;56.70
5952;BME280;3001;42.622;23.194;2023-04-02T08:00:49;90602.16;;;12.91;58.37
5952;BME280;3001;42.622;23.194;2023-04-02T08:03:15;90610.84;;;12.95;56.81
5952;BME280;3001;42.622;23.194;2023-04-02T08:05:42;90617.91;;;12.94;59.14
5952;BME280;3001;42.622;23.194;2023-04-02T08:08:09;90616.22;;;13.14;58.75
5952;BME280;3001;42.622;23.194;2023-04-02T08:10:35;90621.25;;;13.07;56.16
5952;BME280;3001;42.622;23.194;2023-04-02T08:13:03;90615.34;;;13.22;57.32
5952;BME280;3001;42.622;23.194;2023-04-02T08:15:30;90615.25;;;13.18;56.99
5952;BME280;3001;42.622;23.194;2023-04-02T08:17:57;90616.00;;;13.19;56.44
5952;BME280;3001;42.622;23.194;2023-04-02T08:20:24;90605.63;;;13.34;57.51
5952;BME280;3001;42.622;23.194;2023-04-02T08:22:50;90613.53;;;13.38;55.71
5952;BME280;3001;42.622;23.194;2023-04-02T08:25:17;90619.13;;;13.24;55.77
5952;BME280;3001;42.622;23.194;2023-04-02T08:27:46;90610.28;;;13.41;57.55
5952;BME280;3001;42.622;23.194;2023-04-02T08:30:16;90626.00;;;13.44;55.65
5952;BME280;3001;42.622;23.194;2023-04-02T08:32:43;90618.78;;;13.53;56.01
5952;BME280;3001;42.622;23.194;2023-04-02T08:35:10;90616.94;;;13.54;56.98
5952;BME280;3001;42.622;23.194;2023-04-02T08:37:39;90621.78;;;13.82;53.43
5952;BME280;3001;42.622;23.194;2023-04-02T08:40:09;90627.44;;;14.00;55.81
5952;BME280;3001;42.622;23.194;2023-04-02T08:42:46;90624.66;;;14.08;53.12
5952;BME280;3001;42.622;23.194;2023-04-02T08:45:21;90628.66;;;14.18;51.82
5952;BME280;3001;42.622;23.194;2023-04-02T08:47:51;90625.63;;;14.31;53.85
5952;BME280;3001;42.622;23.194;2023-04-02T08:50:27;90630.69;;;14.40;52.66
5952;BME280;3001;42.622;23.194;2023-04-02T08:52:56;90636.75;;;14.44;52.45
5952;BME280;3001;42.622;23.194;2023-04-02T08:55:35;90628.63;;;14.49;50.67
5952;BME280;3001;42.622;23.194;2023-04-02T08:58:08;90626.88;;;14.53;50.21
5952;BME280;3001;42.622;23.194;2023-04-02T09:00:44;90634.59;;;14.65;48.59
5952;BME280;3001;42.622;23.194;2023-04-02T09:03:17;90628.81;;;14.56;50.08
5952;BME280;3001;42.622;23.194;2023-04-02T09:05:46;90625.28;;;14.48;51.29
5952;BME280;3001;42.622;23.194;2023-04-02T09:08:17;90628.75;;;14.37;50.45
5952;BME280;3001;42.622;23.194;2023-04-02T09:10:50;90623.94;;;14.39;50.49
5952;BME280;3001;42.622;23.194;2023-04-02T09:13:22;90614.50;;;14.34;50.59
5952;BME280;3001;42.622;23.194;2023-04-02T09:15:52;90601.41;;;14.50;52.70
5952;BME280;3001;42.622;23.194;2023-04-02T09:18:21;90624.84;;;14.62;50.21
5952;BME280;3001;42.622;23.194;2023-04-02T09:20:48;90633.41;;;14.78;51.14
5952;BME280;3001;42.622;23.194;2023-04-02T09:23:17;90627.91;;;14.83;50.59
5952;BME280;3001;42.622;23.194;2023-04-02T09:25:47;90629.69;;;14.79;49.33
5952;BME280;3001;42.622;23.194;2023-04-02T09:28:14;90630.19;;;14.84;48.53
5952;BME280;3001;42.622;23.194;2023-04-02T09:30:57;90620.78;;;14.64;49.20
5952;BME280;3001;42.622;23.194;2023-04-02T09:33:42;90622.75;;;14.52;52.45
5952;BME280;3001;42.622;23.194;2023-04-02T09:36:34;90614.38;;;14.62;53.41
5952;BME280;3001;42.622;23.194;2023-04-02T09:39:04;90616.91;;;14.74;53.57
5952;BME280;3001;42.622;23.194;2023-04-02T09:41:34;90621.16;;;14.82;52.60
5952;BME280;3001;42.622;23.194;2023-04-02T09:44:18;90612.44;;;14.93;51.51
5952;BME280;3001;42.622;23.194;2023-04-02T09:46:52;90616.38;;;15.03;50.96
5952;BME280;3001;42.622;23.194;2023-04-02T09:49:22;90616.09;;;15.08;48.72
5952;BME280;3001;42.622;23.194;2023-04-02T09:52:19;90613.56;;;15.11;48.28
5952;BME280;3001;42.622;23.194;2023-04-02T09:54:47;90612.41;;;15.28;49.34
5952;BME280;3001;42.622;23.194;2023-04-02T09:57:30;90602.88;;;15.35;49.96
5952;BME280;3001;42.622;23.194;2023-04-02T10:00:15;90610.78;;;15.39;48.34
5952;BME280;3001;42.622;23.194;2023-04-02T10:02:45;90611.63;;;15.43;47.80
5952;BME280;3001;42.622;23.194;2023-04-02T10:05:18;90596.84;;;15.72;49.67
5952;BME280;3001;42.622;23.194;2023-04-02T10:07:47;90607.63;;;15.90;48.99
5952;BME280;3001;42.622;23.194;2023-04-02T10:10:19;90598.03;;;15.97;46.05
5952;BME280;3001;42.622;23.194;2023-04-02T10:12:49;90596.81;;;16.14;47.99
5952;BME280;3001;42.622;23.194;2023-04-02T10:15:26;90594.88;;;16.33;48.90
5952;BME280;3001;42.622;23.194;2023-04-02T10:18:02;90596.31;;;16.53;48.28
5952;BME280;3001;42.622;23.194;2023-04-02T10:20:33;90587.16;;;16.66;44.28
5952;BME280;3001;42.622;23.194;2023-04-02T10:23:01;90597.88;;;16.80;44.50
5952;BME280;3001;42.622;23.194;2023-04-02T10:25:31;90585.47;;;16.77;44.29
5952;BME280;3001;42.622;23.194;2023-04-02T10:28:11;90599.63;;;16.73;43.84
5952;BME280;3001;42.622;23.194;2023-04-02T10:30:53;90598.84;;;16.72;46.04
5952;BME280;3001;42.622;23.194;2023-04-02T10:33:28;90609.97;;;16.62;46.05
5952;BME280;3001;42.622;23.194;2023-04-02T10:36:04;90597.00;;;16.73;46.77
5952;BME280;3001;42.622;23.194;2023-04-02T10:38:40;90609.00;;;16.74;44.98
5952;BME280;3001;42.622;23.194;2023-04-02T10:41:20;90595.44;;;16.68;44.77
5952;BME280;3001;42.622;23.194;2023-04-02T10:44:04;90603.09;;;16.09;42.68
5952;BME280;3001;42.622;23.194;2023-04-02T10:46:40;90607.81;;;16.00;44.86
5952;BME280;3001;42.622;23.194;2023-04-02T10:49:21;90598.44;;;16.22;43.29
5952;BME280;3001;42.622;23.194;2023-04-02T10:51:57;90598.91;;;16.50;46.28
5952;BME280;3001;42.622;23.194;2023-04-02T10:54:42;90601.84;;;16.71;42.09
5952;BME280;3001;42.622;23.194;2023-04-02T10:57:19;90598.50;;;17.00;47.00
5952;BME280;3001;42.622;23.194;2023-04-02T10:59:52;90592.69;;;17.13;40.92
5952;BME280;3001;42.622;23.194;2023-04-02T11:02:30;90598.22;;;17.34;41.32
5952;BME280;3001;42.622;23.194;2023-04-02T11:05:02;90598.56;;;17.33;40.25
5952;BME280;3001;42.622;23.194;2023-04-02T11:07:42;90592.38;;;17.18;39.61
5952;BME280;3001;42.622;23.194;2023-04-02T11:10:14;90595.59;;;17.34;39.07
5952;BME280;3001;42.622;23.194;2023-04-02T11:12:48;90587.81;;;17.15;39.15
5952;BME280;3001;42.622;23.194;2023-04-02T11:15:17;90587.53;;;17.20;39.70
5952;BME280;3001;42.622;23.194;2023-04-02T11:17:46;90582.41;;;17.01;40.14
5952;BME280;3001;42.622;23.194;2023-04-02T11:20:47;90586.09;;;16.97;41.91
5952;BME280;3001;42.622;23.194;2023-04-02T11:23:20;90585.78;;;17.02;43.96
5952;BME280;3001;42.622;23.194;2023-04-02T11:25:47;90585.44;;;17.03;40.79
5952;BME280;3001;42.622;23.194;2023-04-02T11:28:25;90586.28;;;17.11;42.38
5952;BME280;3001;42.622;23.194;2023-04-02T11:30:53;90595.75;;;17.19;41.76
5952;BME280;3001;42.622;23.194;2023-04-02T11:33:37;90593.31;;;17.33;39.24
5952;BME280;3001;42.622;23.194;2023-04-02T11:39:08;90570.28;;;16.90;40.11
5952;BME280;3001;42.622;23.194;2023-04-02T11:42:02;90573.94;;;16.85;41.80
5952;BME280;3001;42.622;23.194;2023-04-02T11:44:29;90572.50;;;16.88;41.65
5952;BME280;3001;42.622;23.194;2023-04-02T11:47:17;90569.94;;;16.95;41.81
5952;BME280;3001;42.622;23.194;2023-04-02T11:50:19;90574.16;;;16.99;43.17
5952;BME280;3001;42.622;23.194;2023-04-02T11:52:53;90578.59;;;16.95;43.13
5952;BME280;3001;42.622;23.194;2023-04-02T11:55:26;90569.19;;;16.94;43.24
5952;BME280;3001;42.622;23.194;2023-04-02T11:58:23;90576.53;;;17.11;42.54
5952;BME280;3001;42.622;23.194;2023-04-02T12:01:10;90580.25;;;17.36;41.76
5952;BME280;3001;42.622;23.194;2023-04-02T12:03:54;90580.00;;;17.48;42.24
5952;BME280;3001;42.622;23.194;2023-04-02T12:06:32;90574.34;;;17.79;41.07
5952;BME280;3001;42.622;23.194;2023-04-02T12:09:15;90574.84;;;17.91;40.80
5952;BME280;3001;42.622;23.194;2023-04-02T12:11:46;90569.72;;;18.05;40.10
5952;BME280;3001;42.622;23.194;2023-04-02T12:14:40;90578.09;;;18.18;38.47
5952;BME280;3001;42.622;23.194;2023-04-02T12:17:16;90555.19;;;18.18;38.55
5952;BME280;3001;42.622;23.194;2023-04-02T12:19:46;90555.41;;;18.43;39.45
5952;BME280;3001;42.622;23.194;2023-04-02T12:22:17;90553.94;;;18.49;37.97
5952;BME280;3001;42.622;23.194;2023-04-02T12:24:46;90573.28;;;18.70;40.21
5952;BME280;3001;42.622;23.194;2023-04-02T12:27:19;90562.34;;;18.68;37.14
5952;BME280;3001;42.622;23.194;2023-04-02T12:29:47;90569.59;;;18.82;36.96
5952;BME280;3001;42.622;23.194;2023-04-02T12:32:20;90563.75;;;19.13;40.39
5952;BME280;3001;42.622;23.194;2023-04-02T12:34:51;90556.00;;;19.44;38.74
5952;BME280;3001;42.622;23.194;2023-04-02T12:37:20;90552.00;;;19.81;36.72
5952;BME280;3001;42.622;23.194;2023-04-02T12:39:52;90554.34;;;20.07;36.33
5952;BME280;3001;42.622;23.194;2023-04-02T12:42:32;90554.34;;;20.14;35.91
5952;BME280;3001;42.622;23.194;2023-04-02T12:45:00;90551.69;;;20.04;36.51
5952;BME280;3001;42.622;23.194;2023-04-02T12:47:27;90559.97;;;20.06;36.13
5952;BME280;3001;42.622;23.194;2023-04-02T12:49:56;90553.59;;;20.17;34.71
5952;BME280;3001;42.622;23.194;2023-04-02T12:52:25;90558.50;;;20.26;36.13
5952;BME280;3001;42.622;23.194;2023-04-02T12:54:54;90550.19;;;20.52;35.26
5952;BME280;3001;42.622;23.194;2023-04-02T12:57:35;90556.59;;;20.61;34.75
5952;BME280;3001;42.622;23.194;2023-04-02T13:00:28;90546.03;;;20.82;34.58
5952;BME280;3001;42.622;23.194;2023-04-02T13:02:59;90552.09;;;20.90;32.50
5952;BME280;3001;42.622;23.194;2023-04-02T13:05:35;90545.69;;;20.87;30.67
5952;BME280;3001;42.622;23.194;2023-04-02T13:08:04;90555.09;;;20.71;32.08
5952;BME280;3001;42.622;23.194;2023-04-02T13:10:31;90556.63;;;20.47;31.53
5952;BME280;3001;42.622;23.194;2023-04-02T13:13:01;90560.75;;;20.34;32.50
5952;BME280;3001;42.622;23.194;2023-04-02T13:15:30;90553.22;;;20.29;33.05
5952;BME280;3001;42.622;23.194;2023-04-02T13:18:12;90555.84;;;20.26;31.04
5952;BME280;3001;42.622;23.194;2023-04-02T13:20:53;90550.59;;;20.29;32.65
5952;BME280;3001;42.622;23.194;2023-04-02T13:23:32;90546.06;;;20.05;32.04
5952;BME280;3001;42.622;23.194;2023-04-02T13:26:00;90548.25;;;19.96;33.02
5952;BME280;3001;42.622;23.194;2023-04-02T13:28:28;90539.13;;;19.59;31.86
5952;BME280;3001;42.622;23.194;2023-04-02T13:30:55;90555.00;;;18.95;32.06
5952;BME280;3001;42.622;23.194;2023-04-02T13:33:22;90546.69;;;18.86;33.72
5952;BME280;3001;42.622;23.194;2023-04-02T13:35:48;90541.69;;;18.67;34.16
5952;BME280;3001;42.622;23.194;2023-04-02T13:38:15;90542.75;;;18.59;34.47
5952;BME280;3001;42.622;23.194;2023-04-02T13:40:42;90538.59;;;18.58;35.96
5952;BME280;3001;42.622;23.194;2023-04-02T13:43:15;90535.97;;;18.54;34.26
5952;BME280;3001;42.622;23.194;2023-04-02T13:45:46;90533.81;;;18.74;34.62
5952;BME280;3001;42.622;23.194;2023-04-02T13:48:14;90527.56;;;18.92;34.55
5952;BME280;3001;42.622;23.194;2023-04-02T13:50:42;90535.44;;;18.96;33.17